Time;durP1;ratioP1;P1;durP2;ratioP2;P2;SDS_P1;SDS_P2;PMS_P1;PMS_P2;Temp;Humidity;BMP_temperature;BMP_pressure;BME280_temperature;BME280_humidity;BME280_pressure;Samples;Min_cycle;Max_cycle;Signal;HPM_P1;HPM_P2
2023/12/19 00:00:46;;;;;;;0.90;0.87;;;8.00;76.20;;;;;;7868215;28;20211;-87
2023/12/19 00:04:36;;;;;;;1.83;1.30;;;8.10;74.90;;;;;;7868154;28;20647;-87
2023/12/19 00:08:21;;;;;;;2.03;1.30;;;8.10;76.50;;;;;;7868323;28;20716;-87
2023/12/19 00:12:08;;;;;;;1.97;1.30;;;8.20;75.40;;;;;;7845521;28;20185;-87
2023/12/19 00:15:53;;;;;;;5.03;3.07;;;8.20;75.80;;;;;;7855695;28;20217;-87
2023/12/19 00:19:39;;;;;;;4.83;2.20;;;8.20;76.00;;;;;;7861706;28;20209;-87
2023/12/19 00:23:30;;;;;;;2.07;1.13;;;8.20;76.20;;;;;;7853513;28;20173;-87
2023/12/19 00:27:16;;;;;;;2.00;1.50;;;8.30;74.80;;;;;;7867432;28;20254;-87
2023/12/19 00:31:01;;;;;;;1.17;0.90;;;8.30;75.50;;;;;;7867183;28;20177;-87
2023/12/19 00:34:47;;;;;;;1.10;1.00;;;8.30;76.50;;;;;;7866779;28;20643;-88
2023/12/19 00:38:32;;;;;;;1.67;1.00;;;8.30;75.90;;;;;;7848964;28;20284;-87
2023/12/19 00:42:18;;;;;;;1.83;1.13;;;8.20;76.00;;;;;;7840000;28;20671;-88
2023/12/19 00:46:04;;;;;;;1.33;1.00;;;8.30;75.40;;;;;;7836220;28;20687;-88
2023/12/19 00:49:50;;;;;;;1.70;0.97;;;8.30;75.90;;;;;;7836673;28;20667;-86
2023/12/19 00:53:37;;;;;;;1.77;1.17;;;8.30;76.30;;;;;;7835765;28;20182;-87
2023/12/19 00:57:22;;;;;;;1.90;1.00;;;8.30;76.60;;;;;;7855947;28;20789;-88
2023/12/19 01:01:08;;;;;;;1.43;1.07;;;8.40;76.40;;;;;;7843211;28;20287;-87
2023/12/19 01:04:56;;;;;;;1.70;1.20;;;8.40;75.80;;;;;;7866610;28;20181;-87
2023/12/19 01:08:42;;;;;;;1.37;0.93;;;8.40;75.10;;;;;;7845530;28;20182;-86
2023/12/19 01:12:28;;;;;;;1.90;1.13;;;8.50;74.00;;;;;;7846882;28;20328;-87
2023/12/19 01:16:14;;;;;;;1.80;1.30;;;8.50;75.00;;;;;;7835827;28;20206;-87
2023/12/19 01:20:00;;;;;;;1.40;1.10;;;8.50;75.70;;;;;;7835830;28;20247;-87
2023/12/19 01:23:49;;;;;;;1.67;0.87;;;8.40;75.00;;;;;;7850545;28;20180;-87
2023/12/19 01:27:34;;;;;;;1.37;1.00;;;8.40;75.50;;;;;;7898065;28;20200;-87
2023/12/19 01:31:20;;;;;;;0.90;0.70;;;8.40;75.20;;;;;;7905039;28;20176;-87
2023/12/19 01:35:06;;;;;;;3.43;0.80;;;8.50;74.10;;;;;;7867657;28;20201;-87
2023/12/19 01:38:52;;;;;;;1.10;0.70;;;8.50;73.40;;;;;;7868789;28;20173;-87
2023/12/19 01:42:38;;;;;;;1.13;0.80;;;8.50;73.20;;;;;;7867208;28;20272;-87
2023/12/19 01:46:24;;;;;;;1.30;0.77;;;8.70;72.50;;;;;;7849905;28;20249;-87
2023/12/19 01:50:15;;;;;;;0.90;0.70;;;8.70;72.50;;;;;;7856345;28;20178;-87
2023/12/19 01:54:04;;;;;;;1.67;0.60;;;8.70;72.10;;;;;;7847011;28;20182;-88
2023/12/19 01:57:50;;;;;;;0.77;0.77;;;8.60;72.20;;;;;;7842080;28;20221;-88
2023/12/19 02:01:36;;;;;;;1.40;0.93;;;8.50;72.80;;;;;;7835044;28;20205;-87
2023/12/19 02:05:22;;;;;;;2.20;1.00;;;8.50;72.50;;;;;;7839794;28;20232;-88
2023/12/19 02:09:08;;;;;;;1.00;0.80;;;8.50;73.70;;;;;;7840544;28;20178;-87
2023/12/19 02:12:53;;;;;;;0.87;0.70;;;8.30;73.10;;;;;;7841242;28;20174;-88
2023/12/19 02:16:39;;;;;;;0.83;0.70;;;8.30;73.40;;;;;;7858951;28;20200;-87
2023/12/19 02:20:25;;;;;;;0.57;0.57;;;8.40;72.50;;;;;;7867027;28;20209;-87
2023/12/19 02:24:10;;;;;;;1.10;0.70;;;8.40;73.30;;;;;;7858609;28;20174;-87
2023/12/19 02:27:57;;;;;;;0.83;0.70;;;8.20;73.30;;;;;;7865336;28;20221;-87
2023/12/19 02:31:43;;;;;;;1.00;0.73;;;8.30;72.00;;;;;;7840251;28;20265;-86
2023/12/19 02:35:29;;;;;;;1.40;0.70;;;8.40;72.90;;;;;;7841165;28;20246;-86
2023/12/19 02:39:15;;;;;;;0.90;0.60;;;8.20;74.40;;;;;;7839460;28;20193;-87
2023/12/19 02:43:01;;;;;;;0.93;0.87;;;8.20;74.00;;;;;;7845752;28;20227;-87
2023/12/19 02:46:46;;;;;;;1.10;0.90;;;8.20;75.40;;;;;;7839072;28;20687;-87
2023/12/19 02:50:32;;;;;;;0.90;0.90;;;8.00;76.20;;;;;;7852698;28;20182;-87
2023/12/19 02:54:18;;;;;;;1.10;1.00;;;7.90;75.40;;;;;;7852184;28;20193;-86
2023/12/19 02:58:03;;;;;;;1.40;1.00;;;7.90;75.80;;;;;;7848308;28;20632;-87
2023/12/19 03:01:49;;;;;;;1.80;1.17;;;7.80;77.00;;;;;;7839518;28;20209;-87
2023/12/19 03:05:36;;;;;;;1.33;0.90;;;7.70;77.40;;;;;;7843533;28;20346;-87
2023/12/19 03:09:21;;;;;;;1.50;1.00;;;7.70;78.10;;;;;;7849135;28;20186;-87
2023/12/19 03:13:07;;;;;;;1.57;1.10;;;7.70;78.10;;;;;;7838805;28;20212;-87
2023/12/19 03:16:52;;;;;;;0.90;0.90;;;7.70;77.60;;;;;;7839639;28;20252;-86
2023/12/19 03:20:38;;;;;;;1.20;0.90;;;7.70;76.20;;;;;;7842675;28;20212;-87
2023/12/19 03:24:24;;;;;;;1.10;0.97;;;7.80;75.90;;;;;;7869389;28;20265;-87
2023/12/19 03:28:09;;;;;;;1.23;0.87;;;7.80;76.70;;;;;;7845469;28;20197;-88
2023/12/19 03:31:55;;;;;;;1.83;1.00;;;7.70;78.20;;;;;;7860620;28;20182;-87
2023/12/19 03:35:40;;;;;;;1.43;1.20;;;7.60;79.20;;;;;;7869628;28;20278;-88
2023/12/19 03:39:26;;;;;;;1.17;0.97;;;7.60;77.70;;;;;;7869736;28;20209;-88
2023/12/19 03:43:12;;;;;;;1.23;1.00;;;7.70;77.70;;;;;;7856594;28;20549;-88
2023/12/19 03:46:58;;;;;;;1.93;1.20;;;7.80;77.80;;;;;;7838172;28;20251;-88
2023/12/19 03:50:43;;;;;;;2.27;1.40;;;7.60;77.60;;;;;;7841484;28;20186;-88
2023/12/19 03:54:29;;;;;;;1.53;1.30;;;7.70;77.70;;;;;;7866255;28;20192;-87
2023/12/19 03:58:15;;;;;;;1.80;1.43;;;7.60;78.50;;;;;;7866060;28;20218;-88
2023/12/19 04:02:01;;;;;;;2.00;1.20;;;7.60;78.50;;;;;;7839373;28;20686;-87
2023/12/19 04:05:46;;;;;;;1.27;1.00;;;7.60;77.70;;;;;;7869758;28;20228;-87
2023/12/19 04:09:33;;;;;;;1.80;1.23;;;7.60;77.10;;;;;;7868933;28;20181;-87
2023/12/19 04:13:19;;;;;;;2.40;1.20;;;7.60;78.00;;;;;;7862747;28;20185;-87
2023/12/19 04:17:04;;;;;;;1.70;1.20;;;7.50;78.50;;;;;;7837587;28;20202;-88
2023/12/19 04:20:50;;;;;;;1.63;1.20;;;7.50;77.90;;;;;;7852041;28;20815;-88
2023/12/19 04:24:36;;;;;;;1.87;1.40;;;7.50;77.20;;;;;;7858010;28;20265;-87
2023/12/19 04:28:21;;;;;;;3.70;1.20;;;7.50;77.00;;;;;;7837682;28;20240;-88
2023/12/19 04:32:07;;;;;;;1.60;1.30;;;7.50;77.30;;;;;;7850726;28;20205;-88
2023/12/19 04:35:52;;;;;;;2.50;1.43;;;7.60;77.00;;;;;;7850676;28;20210;-88
2023/12/19 04:39:39;;;;;;;4.27;1.70;;;7.60;77.00;;;;;;7837129;28;20637;-88
2023/12/19 04:43:25;;;;;;;2.13;1.40;;;7.50;78.10;;;;;;7838634;28;20308;-87
2023/12/19 04:47:10;;;;;;;3.50;1.57;;;7.50;80.90;;;;;;7848161;28;20202;-88
2023/12/19 04:50:56;;;;;;;1.60;1.20;;;7.40;82.70;;;;;;7837163;28;20265;-88
2023/12/19 04:54:41;;;;;;;4.17;1.57;;;7.30;83.80;;;;;;7836683;28;20216;-88
2023/12/19 04:58:27;;;;;;;1.90;1.50;;;7.20;81.40;;;;;;7837255;28;20205;-88
2023/12/19 05:02:13;;;;;;;1.97;1.30;;;7.30;80.50;;;;;;7849487;28;20812;-88
2023/12/19 05:05:58;;;;;;;2.20;1.50;;;7.30;79.90;;;;;;7864210;28;20205;-87
2023/12/19 05:09:44;;;;;;;2.30;1.70;;;7.30;80.90;;;;;;7851651;28;20192;-88
2023/12/19 05:13:31;;;;;;;3.07;1.83;;;7.30;80.20;;;;;;7845819;28;20182;-87
2023/12/19 05:17:16;;;;;;;1.73;1.60;;;7.40;79.60;;;;;;7852684;28;20232;-86
2023/12/19 05:21:02;;;;;;;2.70;1.73;;;7.30;79.60;;;;;;7843883;28;20213;-88
2023/12/19 05:24:48;;;;;;;2.73;1.80;;;7.30;80.30;;;;;;7837313;28;20192;-87
2023/12/19 05:28:36;;;;;;;6.07;2.93;;;7.20;82.10;;;;;;7849165;28;20186;-88
2023/12/19 05:32:21;;;;;;;4.20;3.30;;;7.00;87.10;;;;;;7852902;28;20190;-87
2023/12/19 05:36:07;;;;;;;6.17;3.97;;;6.90;89.30;;;;;;7843989;28;20201;-88
2023/12/19 05:39:52;;;;;;;6.07;3.37;;;6.70;90.60;;;;;;7849993;28;20271;-88
2023/12/19 05:43:38;;;;;;;3.07;2.40;;;6.60;91.40;;;;;;7856591;28;20200;-88
2023/12/19 05:47:25;;;;;;;7.80;3.00;;;6.50;91.90;;;;;;7862280;28;20292;-87
2023/12/19 05:51:11;;;;;;;3.47;2.47;;;6.50;92.30;;;;;;7861730;28;20215;-88
2023/12/19 05:54:56;;;;;;;4.67;3.17;;;6.30;92.70;;;;;;7866591;28;20189;-88
2023/12/19 05:58:44;;;;;;;6.57;3.40;;;6.30;93.20;;;;;;7887618;28;20198;-88
2023/12/19 06:02:32;;;;;;;5.70;4.13;;;6.20;93.60;;;;;;7885579;28;20244;-87
2023/12/19 06:06:17;;;;;;;5.17;3.53;;;6.20;94.00;;;;;;7858495;28;20224;-88
2023/12/19 06:10:10;;;;;;;6.17;3.47;;;6.20;94.50;;;;;;7842261;28;20206;-87
2023/12/19 06:13:56;;;;;;;6.13;3.90;;;6.10;95.00;;;;;;7854097;28;20185;-89
2023/12/19 06:17:44;;;;;;;7.27;4.30;;;6.00;95.80;;;;;;7862968;28;20233;-88
2023/12/19 06:21:30;;;;;;;6.10;3.97;;;5.90;96.70;;;;;;7851690;28;20263;-87
2023/12/19 06:25:15;;;;;;;6.67;4.13;;;5.90;97.40;;;;;;7862036;28;20242;-88
2023/12/19 06:29:03;;;;;;;7.93;5.47;;;5.90;98.10;;;;;;7877599;28;20238;-87
2023/12/19 06:32:50;;;;;;;8.67;4.97;;;5.80;98.50;;;;;;7872549;28;20181;-87
2023/12/19 06:36:37;;;;;;;9.43;5.30;;;5.90;98.90;;;;;;7862382;28;20198;-87
2023/12/19 06:40:24;;;;;;;8.40;5.03;;;5.80;99.70;;;;;;7871331;28;20208;-88
2023/12/19 06:44:10;;;;;;;7.87;5.00;;;5.80;99.90;;;;;;7859700;28;20246;-88
2023/12/19 06:47:57;;;;;;;7.83;4.60;;;5.80;99.90;;;;;;7872237;28;20202;-88
2023/12/19 06:51:43;;;;;;;7.73;4.67;;;5.70;99.90;;;;;;7855326;28;20231;-88
2023/12/19 06:55:30;;;;;;;8.93;4.87;;;5.80;99.90;;;;;;7840678;28;20260;-88
2023/12/19 06:59:16;;;;;;;11.00;6.10;;;5.60;99.90;;;;;;7869199;28;20708;-87
2023/12/19 07:03:01;;;;;;;10.30;6.00;;;5.60;99.90;;;;;;7871160;28;20733;-87
2023/12/19 07:06:47;;;;;;;14.20;5.80;;;5.70;99.90;;;;;;7870302;28;20205;-88
2023/12/19 07:10:33;;;;;;;12.00;5.50;;;5.70;99.90;;;;;;7867256;28;20212;-88
2023/12/19 07:14:20;;;;;;;8.30;5.53;;;5.60;99.90;;;;;;7871307;28;20177;-87
2023/12/19 07:18:06;;;;;;;10.03;5.80;;;5.60;99.90;;;;;;7870540;28;20224;-87
2023/12/19 07:21:51;;;;;;;11.97;6.13;;;5.70;99.90;;;;;;7860905;28;20194;-87
2023/12/19 07:25:37;;;;;;;11.73;5.70;;;5.60;99.90;;;;;;7870269;28;20248;-87
2023/12/19 07:29:23;;;;;;;10.00;5.70;;;5.60;99.90;;;;;;7866560;28;20658;-88
2023/12/19 07:33:08;;;;;;;10.73;5.60;;;5.60;99.90;;;;;;7870422;28;20177;-87
2023/12/19 07:36:55;;;;;;;10.17;5.03;;;5.60;99.90;;;;;;7869857;28;20220;-88
2023/12/19 07:40:41;;;;;;;10.57;4.30;;;5.60;99.90;;;;;;7871717;28;20254;-87
2023/12/19 07:44:26;;;;;;;6.47;3.77;;;5.70;99.90;;;;;;7900854;28;20177;-88
2023/12/19 07:48:12;;;;;;;4.63;2.80;;;5.70;99.90;;;;;;7888514;28;20552;-87
2023/12/19 07:51:57;;;;;;;4.13;2.40;;;5.70;99.90;;;;;;7869492;28;20230;-88
2023/12/19 07:55:43;;;;;;;4.93;2.17;;;5.80;99.90;;;;;;7865040;28;20292;-87
2023/12/19 07:59:29;;;;;;;3.23;2.03;;;5.90;97.70;;;;;;7868899;28;20359;-87
2023/12/19 08:03:18;;;;;;;2.43;1.80;;;6.00;96.10;;;;;;7855302;28;20178;-87
2023/12/19 08:07:05;;;;;;;5.30;1.87;;;6.10;94.70;;;;;;7837396;28;20263;-87
2023/12/19 08:10:51;;;;;;;2.80;2.13;;;6.20;93.90;;;;;;7837732;28;20565;-87
2023/12/19 08:14:38;;;;;;;2.53;1.57;;;6.20;94.00;;;;;;7843400;28;20648;-88
2023/12/19 08:18:23;;;;;;;4.43;2.33;;;6.30;93.90;;;;;;7847941;28;20638;-87
2023/12/19 08:22:09;;;;;;;4.67;2.67;;;6.30;94.00;;;;;;7866485;28;20209;-87
2023/12/19 08:25:55;;;;;;;3.27;2.27;;;6.40;93.10;;;;;;7855901;28;20269;-87
2023/12/19 08:29:40;;;;;;;3.27;2.50;;;6.40;93.30;;;;;;7853534;28;20647;-87
2023/12/19 08:33:26;;;;;;;4.07;2.77;;;6.40;93.30;;;;;;7864351;28;20204;-87
2023/12/19 08:37:11;;;;;;;5.43;3.37;;;6.40;93.50;;;;;;7851750;28;20237;-87
2023/12/19 08:40:57;;;;;;;5.47;3.33;;;6.30;94.80;;;;;;7838781;28;20250;-87
2023/12/19 08:44:43;;;;;;;6.87;3.57;;;6.30;95.30;;;;;;7836908;28;20181;-87
2023/12/19 08:48:28;;;;;;;6.03;2.90;;;6.20;95.30;;;;;;7836970;28;20178;-88
2023/12/19 08:52:14;;;;;;;4.47;3.27;;;6.20;94.50;;;;;;7868968;28;20256;-87
2023/12/19 08:56:00;;;;;;;4.77;2.77;;;6.20;94.60;;;;;;7869069;28;20200;-88
2023/12/19 08:59:45;;;;;;;3.97;2.77;;;6.30;93.80;;;;;;7852419;28;20216;-88
2023/12/19 09:03:31;;;;;;;8.80;3.63;;;6.40;94.00;;;;;;7839765;28;20669;-87
2023/12/19 09:07:17;;;;;;;18.50;10.60;;;6.30;96.00;;;;;;7850930;28;20560;-88
2023/12/19 09:11:04;;;;;;;52.77;27.17;;;6.30;97.10;;;;;;7837689;28;20217;-88
2023/12/19 09:14:50;;;;;;;34.23;19.80;;;6.40;97.00;;;;;;7843453;28;20166;-87
2023/12/19 09:18:36;;;;;;;35.13;20.83;;;6.40;97.70;;;;;;7859420;28;20181;-87
2023/12/19 09:22:22;;;;;;;23.83;15.13;;;6.50;98.10;;;;;;7867553;28;20258;-87
2023/12/19 09:26:08;;;;;;;12.50;7.67;;;6.50;98.40;;;;;;7868487;28;20209;-88
2023/12/19 09:29:53;;;;;;;10.07;6.17;;;6.50;98.90;;;;;;7867545;28;20200;-88
2023/12/19 09:33:42;;;;;;;13.13;8.07;;;6.50;99.20;;;;;;7867215;28;20184;-88
2023/12/19 09:37:28;;;;;;;8.63;4.20;;;6.50;99.90;;;;;;7848604;28;20675;-87
2023/12/19 09:41:14;;;;;;;3.27;2.50;;;6.50;99.10;;;;;;7842516;28;20573;-88
2023/12/19 09:45:01;;;;;;;10.40;6.00;;;6.70;94.00;;;;;;7839534;28;20178;-88
2023/12/19 09:48:49;;;;;;;6.53;4.57;;;6.80;91.90;;;;;;7859934;28;20205;-88
2023/12/19 09:52:35;;;;;;;7.63;4.50;;;7.00;90.50;;;;;;7866433;28;20174;-88
2023/12/19 09:56:22;;;;;;;8.90;5.20;;;7.20;91.70;;;;;;7865841;28;20201;-88
2023/12/19 10:00:10;;;;;;;24.13;11.90;;;7.10;92.80;;;;;;7845500;28;20255;-89
2023/12/19 10:03:56;;;;;;;19.87;10.60;;;7.20;91.80;;;;;;7853728;28;20277;-88
2023/12/19 10:07:42;;;;;;;7.13;4.70;;;7.20;91.80;;;;;;7862532;28;20205;-88
2023/12/19 10:11:29;;;;;;;7.23;4.03;;;7.30;91.40;;;;;;7860783;28;20205;-87
2023/12/19 10:15:15;;;;;;;5.77;3.43;;;7.30;90.90;;;;;;7841345;28;20243;-87
2023/12/19 10:19:01;;;;;;;2.50;2.20;;;7.40;90.10;;;;;;7858580;28;20202;-88
2023/12/19 10:22:47;;;;;;;28.70;12.60;;;7.40;87.00;;;;;;7838844;28;20202;-88
2023/12/19 10:26:33;;;;;;;23.83;17.73;;;7.50;84.80;;;;;;7838620;28;20213;-89
2023/12/19 10:30:20;;;;;;;6.00;2.90;;;7.50;84.90;;;;;;7841495;28;20178;-88
2023/12/19 10:34:15;;;;;;;4.77;2.80;;;7.60;83.10;;;;;;7892535;28;20193;-87
2023/12/19 10:38:01;;;;;;;2.70;1.80;;;7.70;84.40;;;;;;7912760;28;20199;-88
2023/12/19 10:41:47;;;;;;;5.90;2.33;;;7.70;83.40;;;;;;7880594;28;20205;-87
2023/12/19 10:45:34;;;;;;;5.57;2.00;;;7.70;83.70;;;;;;7871033;28;20197;-88
2023/12/19 10:49:19;;;;;;;2.43;1.80;;;7.70;81.80;;;;;;7856763;28;20252;-88
2023/12/19 10:53:08;;;;;;;5.00;2.03;;;7.70;83.10;;;;;;7855722;28;20208;-87
2023/12/19 10:57:16;;;;;;;3.17;2.10;;;7.70;82.40;;;;;;7869344;28;20690;-88
2023/12/19 11:01:07;;;;;;;3.90;2.40;;;7.70;82.90;;;;;;7868981;28;20207;-86
2023/12/19 11:05:15;;;;;;;5.20;2.50;;;7.70;83.40;;;;;;7867804;28;20540;-88
2023/12/19 11:09:05;;;;;;;5.17;2.53;;;7.70;83.50;;;;;;7780652;28;20194;-88
2023/12/19 11:12:52;;;;;;;4.30;2.47;;;7.70;84.80;;;;;;7777818;28;20196;-88
2023/12/19 11:16:59;;;;;;;4.50;2.60;;;7.70;84.10;;;;;;7765242;28;20210;-88
2023/12/19 11:20:58;;;;;;;3.43;2.30;;;7.70;85.40;;;;;;7757418;28;20306;-87
2023/12/19 11:25:09;;;;;;;4.83;2.50;;;7.70;84.50;;;;;;7758018;28;20188;-87
2023/12/19 11:28:54;;;;;;;4.40;2.60;;;7.70;85.10;;;;;;7770373;28;20195;-87
2023/12/19 11:32:40;;;;;;;5.07;2.33;;;7.70;85.70;;;;;;7775248;28;20202;-88
2023/12/19 11:36:40;;;;;;;5.53;2.33;;;7.80;86.10;;;;;;7787699;28;20258;-88
2023/12/19 11:40:58;;;;;;;5.93;2.50;;;7.90;87.90;;;;;;7746297;28;20908;-88
2023/12/19 11:44:43;;;;;;;4.33;2.70;;;8.00;88.30;;;;;;7756614;28;20725;-87
2023/12/19 11:48:40;;;;;;;6.53;4.77;;;8.00;89.50;;;;;;7838536;28;20190;-89
2023/12/19 11:52:36;;;;;;;4.13;1.97;;;8.00;89.90;;;;;;7852585;28;20185;-87
2023/12/19 11:56:22;;;;;;;3.80;2.40;;;8.00;90.80;;;;;;7858776;28;20354;-88
2023/12/19 12:00:12;;;;;;;43.50;24.93;;;8.00;91.50;;;;;;7847371;28;20270;-87
2023/12/19 12:04:10;;;;;;;8.80;6.00;;;8.10;92.00;;;;;;7861013;28;20560;-87
2023/12/19 12:07:55;;;;;;;10.73;7.60;;;8.20;92.20;;;;;;7867287;28;20744;-86
2023/12/19 12:11:51;;;;;;;16.40;10.83;;;8.10;92.00;;;;;;7868216;28;20575;-87
2023/12/19 12:15:36;;;;;;;6.50;3.33;;;8.10;91.70;;;;;;7869606;28;20196;-89
2023/12/19 12:19:22;;;;;;;3.50;2.23;;;8.20;92.40;;;;;;7868761;28;20264;-87
2023/12/19 12:23:08;;;;;;;3.97;2.30;;;8.20;93.00;;;;;;7869689;28;20181;-88
2023/12/19 12:27:09;;;;;;;4.30;2.10;;;8.20;93.60;;;;;;7868179;28;20205;-88
2023/12/19 12:30:56;;;;;;;6.17;2.10;;;8.20;94.70;;;;;;7868616;28;20173;-89
2023/12/19 12:34:44;;;;;;;4.73;3.00;;;8.30;96.50;;;;;;7849804;28;20193;-87
2023/12/19 12:38:29;;;;;;;2.53;1.80;;;8.40;97.30;;;;;;7837536;28;20188;-88
2023/12/19 12:42:22;;;;;;;4.37;2.27;;;8.40;98.20;;;;;;7856472;28;20197;-87
2023/12/19 12:46:16;;;;;;;3.00;2.10;;;8.50;99.40;;;;;;7867695;28;20307;-88
2023/12/19 12:50:02;;;;;;;4.07;1.93;;;8.50;99.90;;;;;;7868047;28;20201;-88
2023/12/19 12:53:56;;;;;;;3.33;2.23;;;8.50;99.90;;;;;;7858742;28;20192;-88
2023/12/19 12:57:42;;;;;;;4.07;2.10;;;8.40;99.90;;;;;;7838886;28;20225;-89
2023/12/19 13:01:27;;;;;;;3.73;2.40;;;8.50;99.90;;;;;;7864251;28;20205;-87
2023/12/19 13:05:13;;;;;;;3.63;2.70;;;8.40;99.90;;;;;;7853295;28;20194;-88
2023/12/19 13:08:59;;;;;;;5.83;2.50;;;8.40;99.90;;;;;;7838136;28;20201;-88
2023/12/19 13:12:44;;;;;;;3.83;2.00;;;8.40;99.90;;;;;;7852590;28;20600;-87
2023/12/19 13:16:32;;;;;;;5.90;2.07;;;8.40;99.90;;;;;;7867411;28;20198;-88
2023/12/19 13:20:18;;;;;;;4.83;2.33;;;8.40;99.90;;;;;;7844895;28;20189;-88
2023/12/19 13:24:04;;;;;;;7.20;2.97;;;8.40;99.90;;;;;;7853418;28;20181;-87
2023/12/19 13:27:49;;;;;;;2.80;2.10;;;8.50;99.90;;;;;;7859266;28;20333;-87
2023/12/19 13:31:50;;;;;;;2.73;1.70;;;8.50;99.90;;;;;;7866315;28;20181;-87
2023/12/19 13:35:42;;;;;;;4.07;2.00;;;8.50;99.90;;;;;;7865455;28;20205;-88
2023/12/19 13:39:28;;;;;;;3.73;1.80;;;8.50;99.90;;;;;;7842504;28;20470;-88
2023/12/19 13:43:14;;;;;;;3.23;1.70;;;8.60;99.90;;;;;;7848116;28;20198;-87
2023/12/19 13:47:00;;;;;;;1.50;1.40;;;8.70;99.90;;;;;;7846101;28;20200;-86
2023/12/19 13:50:45;;;;;;;2.60;1.63;;;8.70;99.90;;;;;;7862125;28;20181;-88
2023/12/19 13:54:31;;;;;;;2.20;1.63;;;8.80;99.90;;;;;;7858509;28;20205;-87
2023/12/19 13:58:17;;;;;;;5.80;1.60;;;8.80;99.90;;;;;;7846313;28;20221;-88
2023/12/19 14:02:03;;;;;;;3.40;1.73;;;8.90;99.90;;;;;;7844699;28;20202;-88
2023/12/19 14:05:49;;;;;;;3.37;1.70;;;8.90;99.90;;;;;;7857769;28;20198;-88
2023/12/19 14:09:34;;;;;;;4.47;1.90;;;8.90;99.90;;;;;;7851561;28;20170;-87
2023/12/19 14:13:20;;;;;;;2.80;1.60;;;8.90;99.90;;;;;;7857504;28;20177;-88
2023/12/19 14:17:07;;;;;;;2.30;1.47;;;8.90;99.90;;;;;;7858044;28;20272;-88
2023/12/19 14:20:55;;;;;;;1.70;1.60;;;9.00;99.90;;;;;;7871785;28;20262;-88
2023/12/19 14:24:43;;;;;;;3.77;1.40;;;8.90;99.90;;;;;;7871792;28;20234;-89
2023/12/19 14:28:29;;;;;;;2.20;1.40;;;9.10;99.90;;;;;;7874342;28;20570;-88
2023/12/19 14:32:16;;;;;;;1.60;1.40;;;9.10;99.90;;;;;;7872034;28;20322;-87
2023/12/19 14:36:02;;;;;;;1.87;1.20;;;9.10;99.90;;;;;;7856555;28;20216;-88
2023/12/19 14:39:50;;;;;;;2.30;1.40;;;9.10;99.90;;;;;;7841004;28;20257;-88
2023/12/19 14:43:37;;;;;;;1.60;1.40;;;9.20;99.90;;;;;;7840561;28;20196;-89
2023/12/19 14:47:24;;;;;;;2.07;1.50;;;9.10;99.90;;;;;;7840413;28;20190;-87
2023/12/19 14:51:09;;;;;;;1.83;1.33;;;9.20;99.90;;;;;;7840793;28;20190;-89
2023/12/19 14:54:57;;;;;;;1.40;1.17;;;9.20;99.90;;;;;;7844445;28;20224;-89
2023/12/19 14:58:46;;;;;;;3.70;1.43;;;9.20;99.90;;;;;;7905474;28;20225;-89
2023/12/19 15:02:31;;;;;;;1.70;1.37;;;9.20;99.90;;;;;;7891981;28;20229;-88
2023/12/19 15:06:17;;;;;;;7.77;1.40;;;9.20;99.90;;;;;;7843306;28;20198;-87
2023/12/19 15:10:03;;;;;;;4.03;1.23;;;9.20;99.90;;;;;;7862174;28;20186;-88
2023/12/19 15:13:52;;;;;;;1.87;1.57;;;9.20;99.90;;;;;;7869153;28;20308;-88
2023/12/19 15:17:38;;;;;;;2.00;1.53;;;9.20;99.90;;;;;;7869217;28;20297;-88
2023/12/19 15:21:23;;;;;;;4.30;1.60;;;9.20;99.90;;;;;;7839550;28;20201;-87
2023/12/19 15:25:09;;;;;;;4.93;1.80;;;9.20;99.90;;;;;;7839576;28;20205;-87
2023/12/19 15:28:55;;;;;;;2.60;1.50;;;9.20;99.90;;;;;;7851787;28;20230;-87
2023/12/19 15:32:41;;;;;;;1.67;1.37;;;9.20;99.90;;;;;;7851649;28;20186;-88
2023/12/19 15:36:26;;;;;;;4.83;1.60;;;9.10;99.90;;;;;;7839938;28;20690;-88
2023/12/19 15:40:12;;;;;;;2.63;1.70;;;9.20;99.90;;;;;;7839014;28;20241;-88
2023/12/19 15:43:58;;;;;;;4.13;1.63;;;9.10;99.90;;;;;;7851792;28;20174;-88
2023/12/19 15:47:44;;;;;;;3.17;1.60;;;9.10;99.90;;;;;;7868292;28;20197;-87
2023/12/19 15:51:32;;;;;;;2.10;1.50;;;9.10;99.90;;;;;;7850484;28;20555;-88
2023/12/19 15:55:23;;;;;;;4.07;2.43;;;9.10;99.90;;;;;;7854036;28;20586;-88
2023/12/19 15:59:08;;;;;;;4.13;2.27;;;9.10;99.90;;;;;;7861115;28;20250;-88
2023/12/19 16:02:55;;;;;;;2.57;1.87;;;9.00;99.90;;;;;;7869626;28;20284;-89
2023/12/19 16:06:41;;;;;;;6.70;2.60;;;9.10;99.90;;;;;;7869043;28;20687;-87
2023/12/19 16:10:27;;;;;;;13.93;6.33;;;9.10;99.90;;;;;;7845001;28;20557;-87
2023/12/19 16:14:12;;;;;;;8.07;4.47;;;9.00;99.90;;;;;;7859634;28;20745;-87
2023/12/19 16:17:58;;;;;;;10.68;5.05;;;9.00;99.90;;;;;;7863543;28;20428;-86
2023/12/19 16:21:43;;;;;;;8.07;4.07;;;9.00;99.90;;;;;;7851868;28;20201;-87
2023/12/19 16:25:29;;;;;;;9.20;4.53;;;9.00;99.90;;;;;;7837180;28;20289;-88
2023/12/19 16:29:18;;;;;;;6.93;3.87;;;8.90;99.90;;;;;;7845419;28;20226;-87
2023/12/19 16:33:05;;;;;;;5.50;3.50;;;8.80;99.90;;;;;;7857126;28;20177;-88
2023/12/19 16:36:51;;;;;;;5.53;3.33;;;8.80;99.90;;;;;;7858051;28;20205;-87
2023/12/19 16:40:36;;;;;;;6.73;3.20;;;8.70;99.90;;;;;;7853689;28;20258;-87
2023/12/19 16:44:22;;;;;;;5.90;3.20;;;8.70;99.90;;;;;;7849729;28;20178;-86
2023/12/19 16:48:08;;;;;;;5.93;3.07;;;8.70;99.90;;;;;;7836322;28;20197;-87
2023/12/19 16:51:53;;;;;;;4.60;3.20;;;8.60;99.90;;;;;;7860707;28;20173;-87
2023/12/19 16:55:39;;;;;;;5.07;3.10;;;8.50;99.90;;;;;;7867300;28;20421;-88
2023/12/19 16:59:25;;;;;;;4.87;2.80;;;8.60;99.90;;;;;;7868552;28;20193;-86
2023/12/19 17:03:11;;;;;;;5.00;2.90;;;8.50;99.90;;;;;;7847238;28;20259;-86
2023/12/19 17:06:56;;;;;;;4.73;3.60;;;8.50;99.90;;;;;;7838343;28;20225;-85
2023/12/19 17:10:42;;;;;;;3.60;2.60;;;8.50;99.90;;;;;;7836571;28;20186;-86
2023/12/19 17:14:28;;;;;;;5.57;2.70;;;8.50;99.90;;;;;;7860653;28;20178;-86
2023/12/19 17:18:13;;;;;;;5.03;2.50;;;8.40;99.90;;;;;;7853795;28;20209;-86
2023/12/19 17:21:59;;;;;;;6.73;2.90;;;8.40;99.90;;;;;;7842872;28;20580;-86
2023/12/19 17:25:44;;;;;;;4.03;2.60;;;8.40;99.90;;;;;;7859329;28;20201;-86
2023/12/19 17:29:30;;;;;;;4.70;2.63;;;8.30;99.90;;;;;;7897995;28;20687;-85
2023/12/19 17:33:16;;;;;;;4.17;2.83;;;8.30;99.90;;;;;;7863991;28;20183;-85
2023/12/19 17:37:01;;;;;;;5.17;2.80;;;8.30;99.90;;;;;;7868609;28;20621;-85
2023/12/19 17:40:47;;;;;;;4.83;3.00;;;8.30;99.90;;;;;;7872153;28;20231;-85
2023/12/19 17:44:34;;;;;;;5.30;2.67;;;8.10;99.90;;;;;;7869490;28;20229;-85
2023/12/19 17:48:19;;;;;;;5.00;3.00;;;8.20;99.90;;;;;;7869831;28;20198;-85
2023/12/19 17:52:05;;;;;;;6.70;3.23;;;8.30;99.90;;;;;;7840867;28;20181;-86
2023/12/19 17:55:51;;;;;;;5.20;2.93;;;8.20;99.90;;;;;;7861320;28;20232;-85
2023/12/19 17:59:36;;;;;;;4.80;3.07;;;8.20;99.90;;;;;;7865493;28;20185;-85
2023/12/19 18:03:23;;;;;;;9.17;3.40;;;8.20;99.90;;;;;;7835845;28;20201;-85
2023/12/19 18:07:12;;;;;;;7.07;3.37;;;8.20;99.90;;;;;;7849416;28;20205;-84
2023/12/19 18:10:58;;;;;;;7.07;3.43;;;8.20;99.90;;;;;;7853805;28;20189;-85
2023/12/19 18:14:44;;;;;;;6.07;3.53;;;8.20;99.90;;;;;;7871042;28;20181;-85
2023/12/19 18:18:29;;;;;;;7.90;3.50;;;8.10;99.90;;;;;;7859154;28;20216;-85
2023/12/19 18:22:15;;;;;;;7.23;4.10;;;8.10;99.90;;;;;;7871045;28;20209;-86
2023/12/19 18:26:07;;;;;;;6.93;3.40;;;8.10;99.90;;;;;;7856570;28;20206;-85
2023/12/19 18:29:53;;;;;;;7.13;3.50;;;8.10;99.90;;;;;;7864358;28;20201;-85
2023/12/19 18:33:38;;;;;;;5.77;3.90;;;8.00;99.90;;;;;;7851480;28;20658;-86
2023/12/19 18:37:24;;;;;;;5.77;3.47;;;8.10;99.90;;;;;;7846038;28;20200;-85
2023/12/19 18:41:13;;;;;;;6.97;3.83;;;8.10;99.90;;;;;;7845486;28;20200;-86
2023/12/19 18:44:59;;;;;;;5.50;3.87;;;8.00;99.90;;;;;;7862009;28;20181;-85
2023/12/19 18:48:45;;;;;;;11.27;4.47;;;8.00;99.90;;;;;;7847631;28;20188;-85
2023/12/19 18:52:31;;;;;;;9.90;4.27;;;7.90;99.90;;;;;;7863169;28;20221;-86
2023/12/19 18:56:17;;;;;;;6.60;3.90;;;7.90;99.90;;;;;;7870165;28;20194;-85
2023/12/19 19:00:05;;;;;;;5.37;3.77;;;7.80;99.90;;;;;;7852316;28;20706;-85
2023/12/19 19:03:51;;;;;;;7.53;4.30;;;7.80;99.90;;;;;;7849365;28;20223;-84
2023/12/19 19:07:37;;;;;;;8.87;4.67;;;7.70;99.90;;;;;;7868749;28;20257;-85
2023/12/19 19:11:24;;;;;;;6.07;3.77;;;7.60;99.90;;;;;;7883960;28;20192;-85
2023/12/19 19:15:10;;;;;;;8.90;5.43;;;7.70;99.90;;;;;;7888404;28;20210;-85
2023/12/19 19:18:55;;;;;;;14.47;6.20;;;7.70;99.90;;;;;;7847188;28;20213;-86
2023/12/19 19:22:43;;;;;;;7.20;4.50;;;7.60;99.90;;;;;;7847626;28;20675;-85
2023/12/19 19:26:29;;;;;;;5.43;3.73;;;7.70;99.90;;;;;;7868677;28;20262;-85
2023/12/19 19:30:14;;;;;;;5.80;3.90;;;7.70;99.90;;;;;;7858461;28;20190;-85
2023/12/19 19:34:00;;;;;;;9.93;3.80;;;7.70;99.90;;;;;;7861426;28;20260;-86
2023/12/19 19:37:45;;;;;;;8.93;4.37;;;7.70;99.90;;;;;;7855321;28;20206;-85
2023/12/19 19:41:31;;;;;;;6.90;4.13;;;7.70;99.90;;;;;;7845800;28;20201;-86
2023/12/19 19:45:17;;;;;;;6.33;3.90;;;7.60;99.90;;;;;;7856708;28;20349;-85
2023/12/19 19:49:04;;;;;;;5.33;3.90;;;7.60;99.90;;;;;;7847272;28;20173;-86
2023/12/19 19:52:49;;;;;;;4.87;3.40;;;7.60;99.90;;;;;;7853014;28;20267;-86